sensor_id;sensor_type;location;lat;lon;timestamp;temperature;humidity
13268;DHT22;6702;47.068;15.458;2022-07-29T00:00:33;23.10;99.90
13268;DHT22;6702;47.068;15.458;2022-07-29T00:03:36;23.10;99.90
13268;DHT22;6702;47.068;15.458;2022-07-29T00:06:41;23.10;99.90
13268;DHT22;6702;47.068;15.458;2022-07-29T00:09:44;23.10;99.90
13268;DHT22;6702;47.068;15.458;2022-07-29T00:12:52;23.10;99.90
13268;DHT22;6702;47.068;15.458;2022-07-29T00:15:57;23.20;99.90
13268;DHT22;6702;47.068;15.458;2022-07-29T00:19:05;23.20;99.90
13268;DHT22;6702;47.068;15.458;2022-07-29T00:22:08;23.10;99.90
13268;DHT22;6702;47.068;15.458;2022-07-29T00:25:12;23.00;99.90
13268;DHT22;6702;47.068;15.458;2022-07-29T00:28:15;23.10;99.90
13268;DHT22;6702;47.068;15.458;2022-07-29T00:31:20;23.00;99.90
13268;DHT22;6702;47.068;15.458;2022-07-29T00:34:23;23.00;99.90
13268;DHT22;6702;47.068;15.458;2022-07-29T00:37:44;23.00;99.90
13268;DHT22;6702;47.068;15.458;2022-07-29T00:40:47;23.00;99.90
13268;DHT22;6702;47.068;15.458;2022-07-29T00:43:50;23.00;99.90
13268;DHT22;6702;47.068;15.458;2022-07-29T00:46:55;23.00;99.90
13268;DHT22;6702;47.068;15.458;2022-07-29T00:49:58;23.00;99.90
13268;DHT22;6702;47.068;15.458;2022-07-29T00:53:02;23.00;99.90
13268;DHT22;6702;47.068;15.458;2022-07-29T00:56:05;23.00;99.90
13268;DHT22;6702;47.068;15.458;2022-07-29T00:59:08;23.00;99.90
13268;DHT22;6702;47.068;15.458;2022-07-29T01:02:13;23.00;99.90
13268;DHT22;6702;47.068;15.458;2022-07-29T01:05:20;22.90;99.90
13268;DHT22;6702;47.068;15.458;2022-07-29T01:08:24;23.00;99.90
13268;DHT22;6702;47.068;15.458;2022-07-29T01:11:27;22.90;99.90
13268;DHT22;6702;47.068;15.458;2022-07-29T01:14:31;22.90;99.90
13268;DHT22;6702;47.068;15.458;2022-07-29T01:17:39;22.90;99.90
13268;DHT22;6702;47.068;15.458;2022-07-29T01:21:21;22.90;99.90
13268;DHT22;6702;47.068;15.458;2022-07-29T01:24:44;22.80;99.90
13268;DHT22;6702;47.068;15.458;2022-07-29T01:28:08;22.80;99.90
13268;DHT22;6702;47.068;15.458;2022-07-29T01:31:18;22.70;99.90
13268;DHT22;6702;47.068;15.458;2022-07-29T01:34:41;22.70;99.90
13268;DHT22;6702;47.068;15.458;2022-07-29T01:37:50;22.70;99.90
13268;DHT22;6702;47.068;15.458;2022-07-29T01:41:01;22.70;99.90
13268;DHT22;6702;47.068;15.458;2022-07-29T01:44:13;22.70;99.90
13268;DHT22;6702;47.068;15.458;2022-07-29T01:47:25;22.70;99.90
13268;DHT22;6702;47.068;15.458;2022-07-29T01:50:32;22.70;99.90
13268;DHT22;6702;47.068;15.458;2022-07-29T01:53:42;22.60;99.90
13268;DHT22;6702;47.068;15.458;2022-07-29T01:56:49;22.50;99.90
13268;DHT22;6702;47.068;15.458;2022-07-29T01:59:54;22.50;99.90
13268;DHT22;6702;47.068;15.458;2022-07-29T02:03:03;22.40;99.90
13268;DHT22;6702;47.068;15.458;2022-07-29T02:06:09;22.40;99.90
13268;DHT22;6702;47.068;15.458;2022-07-29T02:09:14;22.40;99.90
13268;DHT22;6702;47.068;15.458;2022-07-29T02:12:19;22.40;99.90
13268;DHT22;6702;47.068;15.458;2022-07-29T02:15:24;22.40;99.90
13268;DHT22;6702;47.068;15.458;2022-07-29T02:18:30;22.30;99.90
13268;DHT22;6702;47.068;15.458;2022-07-29T02:21:33;22.20;99.90
13268;DHT22;6702;47.068;15.458;2022-07-29T02:24:39;22.20;99.90
13268;DHT22;6702;47.068;15.458;2022-07-29T02:27:43;22.20;99.90
13268;DHT22;6702;47.068;15.458;2022-07-29T02:30:48;22.10;99.90
13268;DHT22;6702;47.068;15.458;2022-07-29T02:33:54;22.10;99.90
13268;DHT22;6702;47.068;15.458;2022-07-29T02:36:59;22.10;99.90
13268;DHT22;6702;47.068;15.458;2022-07-29T02:40:03;22.00;99.90
13268;DHT22;6702;47.068;15.458;2022-07-29T02:43:07;22.00;99.90
13268;DHT22;6702;47.068;15.458;2022-07-29T02:46:14;21.90;99.90
13268;DHT22;6702;47.068;15.458;2022-07-29T02:49:42;21.90;99.90
13268;DHT22;6702;47.068;15.458;2022-07-29T02:52:51;21.90;99.90
13268;DHT22;6702;47.068;15.458;2022-07-29T02:56:00;21.90;99.90
13268;DHT22;6702;47.068;15.458;2022-07-29T02:59:09;21.90;99.90
13268;DHT22;6702;47.068;15.458;2022-07-29T03:02:13;21.90;99.90
13268;DHT22;6702;47.068;15.458;2022-07-29T03:05:20;21.80;99.90
13268;DHT22;6702;47.068;15.458;2022-07-29T03:08:24;21.70;99.90
13268;DHT22;6702;47.068;15.458;2022-07-29T03:11:27;21.70;99.90
13268;DHT22;6702;47.068;15.458;2022-07-29T03:14:50;21.70;99.90
13268;DHT22;6702;47.068;15.458;2022-07-29T03:17:53;21.50;99.90
13268;DHT22;6702;47.068;15.458;2022-07-29T03:20:58;21.50;99.90
13268;DHT22;6702;47.068;15.458;2022-07-29T03:24:02;21.50;99.90
13268;DHT22;6702;47.068;15.458;2022-07-29T03:27:11;21.40;99.90
13268;DHT22;6702;47.068;15.458;2022-07-29T03:30:15;21.40;99.90
13268;DHT22;6702;47.068;15.458;2022-07-29T03:33:23;21.40;99.90
13268;DHT22;6702;47.068;15.458;2022-07-29T03:36:27;21.40;99.90
13268;DHT22;6702;47.068;15.458;2022-07-29T03:39:35;21.40;99.90
13268;DHT22;6702;47.068;15.458;2022-07-29T03:42:42;21.40;99.90
13268;DHT22;6702;47.068;15.458;2022-07-29T03:45:48;21.40;99.90
13268;DHT22;6702;47.068;15.458;2022-07-29T03:48:56;21.40;99.90
13268;DHT22;6702;47.068;15.458;2022-07-29T03:52:03;21.30;99.90
13268;DHT22;6702;47.068;15.458;2022-07-29T03:55:07;21.30;99.90
13268;DHT22;6702;47.068;15.458;2022-07-29T03:58:12;21.20;99.90
13268;DHT22;6702;47.068;15.458;2022-07-29T04:01:16;21.20;99.90
13268;DHT22;6702;47.068;15.458;2022-07-29T04:04:20;21.20;99.90
13268;DHT22;6702;47.068;15.458;2022-07-29T04:07:24;21.20;99.90
13268;DHT22;6702;47.068;15.458;2022-07-29T04:10:28;21.10;99.90
13268;DHT22;6702;47.068;15.458;2022-07-29T04:13:34;21.10;99.90
13268;DHT22;6702;47.068;15.458;2022-07-29T04:16:37;21.10;99.90
13268;DHT22;6702;47.068;15.458;2022-07-29T04:19:41;21.10;99.90
13268;DHT22;6702;47.068;15.458;2022-07-29T04:22:45;21.20;99.90
13268;DHT22;6702;47.068;15.458;2022-07-29T04:25:48;21.10;99.90
13268;DHT22;6702;47.068;15.458;2022-07-29T04:28:51;21.10;99.90
13268;DHT22;6702;47.068;15.458;2022-07-29T04:31:54;21.20;99.90
13268;DHT22;6702;47.068;15.458;2022-07-29T04:34:58;21.20;99.90
13268;DHT22;6702;47.068;15.458;2022-07-29T04:38:03;21.30;99.90
13268;DHT22;6702;47.068;15.458;2022-07-29T04:41:06;21.50;99.90
13268;DHT22;6702;47.068;15.458;2022-07-29T04:44:11;21.60;99.90
13268;DHT22;6702;47.068;15.458;2022-07-29T04:47:15;21.80;99.90
13268;DHT22;6702;47.068;15.458;2022-07-29T04:50:18;21.90;99.90
13268;DHT22;6702;47.068;15.458;2022-07-29T04:53:23;22.00;99.90
13268;DHT22;6702;47.068;15.458;2022-07-29T04:56:26;22.20;99.90
13268;DHT22;6702;47.068;15.458;2022-07-29T04:59:29;22.20;99.90
13268;DHT22;6702;47.068;15.458;2022-07-29T05:02:32;22.30;99.90
13268;DHT22;6702;47.068;15.458;2022-07-29T05:05:35;22.50;99.90
13268;DHT22;6702;47.068;15.458;2022-07-29T05:08:40;22.60;99.90
13268;DHT22;6702;47.068;15.458;2022-07-29T05:11:43;22.80;99.90
13268;DHT22;6702;47.068;15.458;2022-07-29T05:14:46;22.90;99.90
13268;DHT22;6702;47.068;15.458;2022-07-29T05:17:49;23.00;99.90
13268;DHT22;6702;47.068;15.458;2022-07-29T05:20:52;23.10;99.90
13268;DHT22;6702;47.068;15.458;2022-07-29T05:23:57;23.20;99.90
13268;DHT22;6702;47.068;15.458;2022-07-29T05:27:00;23.30;99.90
13268;DHT22;6702;47.068;15.458;2022-07-29T05:30:04;23.50;99.90
13268;DHT22;6702;47.068;15.458;2022-07-29T05:33:07;23.60;99.90
13268;DHT22;6702;47.068;15.458;2022-07-29T05:36:30;23.70;99.90
13268;DHT22;6702;47.068;15.458;2022-07-29T05:39:35;23.90;99.90
13268;DHT22;6702;47.068;15.458;2022-07-29T05:42:51;24.10;99.90
13268;DHT22;6702;47.068;15.458;2022-07-29T05:45:54;24.20;99.90
13268;DHT22;6702;47.068;15.458;2022-07-29T05:48:57;24.30;99.90
13268;DHT22;6702;47.068;15.458;2022-07-29T05:52:01;24.60;99.90
13268;DHT22;6702;47.068;15.458;2022-07-29T05:55:06;24.80;99.90
13268;DHT22;6702;47.068;15.458;2022-07-29T05:58:09;25.10;99.90
13268;DHT22;6702;47.068;15.458;2022-07-29T06:01:12;25.40;99.50
13268;DHT22;6702;47.068;15.458;2022-07-29T06:04:16;25.90;98.20
13268;DHT22;6702;47.068;15.458;2022-07-29T06:07:20;26.20;97.20
13268;DHT22;6702;47.068;15.458;2022-07-29T06:10:24;26.60;96.40
13268;DHT22;6702;47.068;15.458;2022-07-29T06:13:28;27.00;95.60
13268;DHT22;6702;47.068;15.458;2022-07-29T06:16:32;27.40;94.90
13268;DHT22;6702;47.068;15.458;2022-07-29T06:19:35;27.60;94.50
13268;DHT22;6702;47.068;15.458;2022-07-29T06:22:38;28.00;93.70
13268;DHT22;6702;47.068;15.458;2022-07-29T06:25:42;28.50;92.40
13268;DHT22;6702;47.068;15.458;2022-07-29T06:28:46;28.80;91.50
13268;DHT22;6702;47.068;15.458;2022-07-29T06:31:50;29.30;90.40
13268;DHT22;6702;47.068;15.458;2022-07-29T06:34:54;29.80;88.70
13268;DHT22;6702;47.068;15.458;2022-07-29T06:38:17;30.30;86.50
13268;DHT22;6702;47.068;15.458;2022-07-29T06:41:36;30.80;83.20
13268;DHT22;6702;47.068;15.458;2022-07-29T06:44:39;31.30;80.80
13268;DHT22;6702;47.068;15.458;2022-07-29T06:47:43;31.80;78.60
13268;DHT22;6702;47.068;15.458;2022-07-29T06:50:47;32.30;75.10
13268;DHT22;6702;47.068;15.458;2022-07-29T06:53:51;32.90;72.40
13268;DHT22;6702;47.068;15.458;2022-07-29T06:57:04;33.80;68.10
13268;DHT22;6702;47.068;15.458;2022-07-29T07:00:08;34.50;65.10
13268;DHT22;6702;47.068;15.458;2022-07-29T07:03:12;34.80;62.40
13268;DHT22;6702;47.068;15.458;2022-07-29T07:06:15;34.90;59.20
13268;DHT22;6702;47.068;15.458;2022-07-29T07:09:18;35.50;57.60
13268;DHT22;6702;47.068;15.458;2022-07-29T07:12:23;35.60;57.00
13268;DHT22;6702;47.068;15.458;2022-07-29T07:15:27;35.60;56.10
13268;DHT22;6702;47.068;15.458;2022-07-29T07:18:40;35.70;55.40
13268;DHT22;6702;47.068;15.458;2022-07-29T07:21:43;34.80;56.40
13268;DHT22;6702;47.068;15.458;2022-07-29T07:24:46;34.30;57.60
13268;DHT22;6702;47.068;15.458;2022-07-29T07:27:51;35.20;56.50
13268;DHT22;6702;47.068;15.458;2022-07-29T07:30:54;36.30;54.90
13268;DHT22;6702;47.068;15.458;2022-07-29T07:33:58;37.70;52.30
13268;DHT22;6702;47.068;15.458;2022-07-29T07:37:01;38.20;50.80
13268;DHT22;6702;47.068;15.458;2022-07-29T07:40:05;38.60;49.00
13268;DHT22;6702;47.068;15.458;2022-07-29T07:43:09;39.30;48.00
13268;DHT22;6702;47.068;15.458;2022-07-29T07:46:13;40.40;46.10
13268;DHT22;6702;47.068;15.458;2022-07-29T07:49:16;41.10;43.80
13268;DHT22;6702;47.068;15.458;2022-07-29T07:52:21;41.90;42.40
13268;DHT22;6702;47.068;15.458;2022-07-29T07:55:25;42.90;41.20
13268;DHT22;6702;47.068;15.458;2022-07-29T07:58:30;43.50;38.40
13268;DHT22;6702;47.068;15.458;2022-07-29T08:01:33;44.20;36.90
13268;DHT22;6702;47.068;15.458;2022-07-29T08:04:56;44.10;35.60
13268;DHT22;6702;47.068;15.458;2022-07-29T08:07:59;45.00;34.50
13268;DHT22;6702;47.068;15.458;2022-07-29T08:11:02;45.60;33.20
13268;DHT22;6702;47.068;15.458;2022-07-29T08:14:12;45.70;31.10
13268;DHT22;6702;47.068;15.458;2022-07-29T08:17:15;46.00;30.50
13268;DHT22;6702;47.068;15.458;2022-07-29T08:20:19;43.30;32.80
13268;DHT22;6702;47.068;15.458;2022-07-29T08:23:22;42.50;35.20
13268;DHT22;6702;47.068;15.458;2022-07-29T08:26:26;42.60;35.00
13268;DHT22;6702;47.068;15.458;2022-07-29T08:29:30;41.90;34.70
13268;DHT22;6702;47.068;15.458;2022-07-29T08:32:35;40.10;35.80
13268;DHT22;6702;47.068;15.458;2022-07-29T08:35:54;39.70;37.20
13268;DHT22;6702;47.068;15.458;2022-07-29T08:38:57;39.60;36.70
13268;DHT22;6702;47.068;15.458;2022-07-29T08:42:00;39.30;37.80
13268;DHT22;6702;47.068;15.458;2022-07-29T08:45:06;39.10;38.40
13268;DHT22;6702;47.068;15.458;2022-07-29T08:48:10;38.40;40.00
13268;DHT22;6702;47.068;15.458;2022-07-29T08:51:15;38.10;40.00
13268;DHT22;6702;47.068;15.458;2022-07-29T08:54:19;37.60;40.00
13268;DHT22;6702;47.068;15.458;2022-07-29T08:57:24;37.20;40.70
13268;DHT22;6702;47.068;15.458;2022-07-29T09:00:29;36.80;41.30
13268;DHT22;6702;47.068;15.458;2022-07-29T09:03:35;36.30;42.40
13268;DHT22;6702;47.068;15.458;2022-07-29T09:06:43;35.40;43.60
13268;DHT22;6702;47.068;15.458;2022-07-29T09:09:47;34.10;45.10
13268;DHT22;6702;47.068;15.458;2022-07-29T09:12:51;33.20;46.90
13268;DHT22;6702;47.068;15.458;2022-07-29T09:15:55;32.70;48.20
13268;DHT22;6702;47.068;15.458;2022-07-29T09:18:58;32.10;49.90
13268;DHT22;6702;47.068;15.458;2022-07-29T09:22:03;31.40;51.50
13268;DHT22;6702;47.068;15.458;2022-07-29T09:25:07;31.00;52.90
13268;DHT22;6702;47.068;15.458;2022-07-29T09:28:12;30.60;54.30
13268;DHT22;6702;47.068;15.458;2022-07-29T09:31:17;30.50;54.50
13268;DHT22;6702;47.068;15.458;2022-07-29T09:34:24;30.30;54.70
13268;DHT22;6702;47.068;15.458;2022-07-29T09:37:28;30.20;55.00
13268;DHT22;6702;47.068;15.458;2022-07-29T09:40:31;30.10;55.90
13268;DHT22;6702;47.068;15.458;2022-07-29T09:43:36;30.00;56.50
13268;DHT22;6702;47.068;15.458;2022-07-29T09:46:41;30.00;56.90
13268;DHT22;6702;47.068;15.458;2022-07-29T09:49:56;29.90;56.70
13268;DHT22;6702;47.068;15.458;2022-07-29T09:53:00;29.80;57.60
13268;DHT22;6702;47.068;15.458;2022-07-29T09:56:04;29.80;58.00
13268;DHT22;6702;47.068;15.458;2022-07-29T09:59:08;30.20;57.70
13268;DHT22;6702;47.068;15.458;2022-07-29T10:02:15;30.40;56.50
13268;DHT22;6702;47.068;15.458;2022-07-29T10:05:26;30.60;55.80
13268;DHT22;6702;47.068;15.458;2022-07-29T10:08:37;30.60;56.10
13268;DHT22;6702;47.068;15.458;2022-07-29T10:11:40;30.40;54.30
13268;DHT22;6702;47.068;15.458;2022-07-29T10:14:51;30.20;54.60
13268;DHT22;6702;47.068;15.458;2022-07-29T10:17:56;30.20;55.30
13268;DHT22;6702;47.068;15.458;2022-07-29T10:21:00;30.10;54.50
13268;DHT22;6702;47.068;15.458;2022-07-29T10:24:04;29.60;55.60
13268;DHT22;6702;47.068;15.458;2022-07-29T10:27:15;29.60;56.10
13268;DHT22;6702;47.068;15.458;2022-07-29T10:30:20;29.50;55.60
13268;DHT22;6702;47.068;15.458;2022-07-29T10:33:41;29.40;55.80
13268;DHT22;6702;47.068;15.458;2022-07-29T10:36:54;29.40;56.30
13268;DHT22;6702;47.068;15.458;2022-07-29T10:40:05;29.30;56.70
13268;DHT22;6702;47.068;15.458;2022-07-29T10:43:29;29.20;57.30
13268;DHT22;6702;47.068;15.458;2022-07-29T10:46:35;29.10;57.00
13268;DHT22;6702;47.068;15.458;2022-07-29T10:49:55;29.10;57.00
13268;DHT22;6702;47.068;15.458;2022-07-29T10:53:01;29.20;56.60
13268;DHT22;6702;47.068;15.458;2022-07-29T10:56:23;29.30;56.40
13268;DHT22;6702;47.068;15.458;2022-07-29T10:59:27;29.40;56.20
13268;DHT22;6702;47.068;15.458;2022-07-29T11:02:46;29.60;56.00
13268;DHT22;6702;47.068;15.458;2022-07-29T11:05:57;30.00;55.80
13268;DHT22;6702;47.068;15.458;2022-07-29T11:09:16;30.50;54.30
13268;DHT22;6702;47.068;15.458;2022-07-29T11:12:47;30.90;53.50
13268;DHT22;6702;47.068;15.458;2022-07-29T11:15:54;31.20;52.90
13268;DHT22;6702;47.068;15.458;2022-07-29T11:19:19;31.50;52.30
13268;DHT22;6702;47.068;15.458;2022-07-29T11:22:34;31.70;51.10
13268;DHT22;6702;47.068;15.458;2022-07-29T11:26:12;32.30;50.90
13268;DHT22;6702;47.068;15.458;2022-07-29T11:29:39;32.40;50.30
13268;DHT22;6702;47.068;15.458;2022-07-29T11:32:44;32.80;49.70
13268;DHT22;6702;47.068;15.458;2022-07-29T11:36:10;33.20;49.00
13268;DHT22;6702;47.068;15.458;2022-07-29T11:39:28;33.40;49.10
13268;DHT22;6702;47.068;15.458;2022-07-29T11:42:45;33.60;48.90
13268;DHT22;6702;47.068;15.458;2022-07-29T11:45:52;33.80;48.90
13268;DHT22;6702;47.068;15.458;2022-07-29T11:48:56;33.90;48.30
13268;DHT22;6702;47.068;15.458;2022-07-29T11:51:59;33.80;47.30
13268;DHT22;6702;47.068;15.458;2022-07-29T11:55:06;33.70;47.20
13268;DHT22;6702;47.068;15.458;2022-07-29T11:58:11;33.50;47.20
13268;DHT22;6702;47.068;15.458;2022-07-29T12:01:17;33.40;47.80
13268;DHT22;6702;47.068;15.458;2022-07-29T12:04:20;33.30;48.30
13268;DHT22;6702;47.068;15.458;2022-07-29T12:07:27;33.10;48.50
13268;DHT22;6702;47.068;15.458;2022-07-29T12:10:37;33.00;48.00
13268;DHT22;6702;47.068;15.458;2022-07-29T12:13:41;32.90;48.60
13268;DHT22;6702;47.068;15.458;2022-07-29T12:16:44;32.80;49.30
13268;DHT22;6702;47.068;15.458;2022-07-29T12:19:47;32.60;49.10
13268;DHT22;6702;47.068;15.458;2022-07-29T12:22:51;32.40;49.70
13268;DHT22;6702;47.068;15.458;2022-07-29T12:25:58;32.30;50.30
13268;DHT22;6702;47.068;15.458;2022-07-29T12:29:01;31.80;50.70
13268;DHT22;6702;47.068;15.458;2022-07-29T12:32:12;31.50;51.20
13268;DHT22;6702;47.068;15.458;2022-07-29T12:35:20;31.30;51.50
13268;DHT22;6702;47.068;15.458;2022-07-29T12:38:24;31.20;51.80
13268;DHT22;6702;47.068;15.458;2022-07-29T12:41:29;31.20;52.30
13268;DHT22;6702;47.068;15.458;2022-07-29T12:44:46;31.30;52.60
13268;DHT22;6702;47.068;15.458;2022-07-29T12:47:52;31.30;52.50
13268;DHT22;6702;47.068;15.458;2022-07-29T12:50:57;31.50;52.50
13268;DHT22;6702;47.068;15.458;2022-07-29T12:54:05;31.60;52.00
13268;DHT22;6702;47.068;15.458;2022-07-29T12:57:10;31.60;51.60
13268;DHT22;6702;47.068;15.458;2022-07-29T13:00:23;31.70;51.20
13268;DHT22;6702;47.068;15.458;2022-07-29T13:03:27;31.70;51.20
13268;DHT22;6702;47.068;15.458;2022-07-29T13:06:39;31.80;50.90
13268;DHT22;6702;47.068;15.458;2022-07-29T13:09:46;31.90;50.80
13268;DHT22;6702;47.068;15.458;2022-07-29T13:13:05;31.80;48.90
13268;DHT22;6702;47.068;15.458;2022-07-29T13:16:08;31.60;49.00
13268;DHT22;6702;47.068;15.458;2022-07-29T13:19:12;31.50;49.40
13268;DHT22;6702;47.068;15.458;2022-07-29T13:22:17;31.40;50.00
13268;DHT22;6702;47.068;15.458;2022-07-29T13:25:24;31.50;51.60
13268;DHT22;6702;47.068;15.458;2022-07-29T13:28:29;31.50;52.00
13268;DHT22;6702;47.068;15.458;2022-07-29T13:31:32;31.20;52.10
13268;DHT22;6702;47.068;15.458;2022-07-29T13:34:35;31.10;52.80
13268;DHT22;6702;47.068;15.458;2022-07-29T13:37:38;31.30;52.70
13268;DHT22;6702;47.068;15.458;2022-07-29T13:40:41;31.40;51.80
13268;DHT22;6702;47.068;15.458;2022-07-29T13:43:46;31.60;51.80
13268;DHT22;6702;47.068;15.458;2022-07-29T13:46:50;31.90;51.80
13268;DHT22;6702;47.068;15.458;2022-07-29T13:49:53;32.20;51.10
13268;DHT22;6702;47.068;15.458;2022-07-29T13:52:57;32.30;50.50
13268;DHT22;6702;47.068;15.458;2022-07-29T13:56:00;32.30;50.60
13268;DHT22;6702;47.068;15.458;2022-07-29T13:59:04;32.20;50.40
13268;DHT22;6702;47.068;15.458;2022-07-29T14:02:08;32.00;50.40
13268;DHT22;6702;47.068;15.458;2022-07-29T14:05:12;31.90;50.50
13268;DHT22;6702;47.068;15.458;2022-07-29T14:08:15;31.90;50.50
13268;DHT22;6702;47.068;15.458;2022-07-29T14:11:18;31.80;51.00
13268;DHT22;6702;47.068;15.458;2022-07-29T14:14:22;31.90;50.80
13268;DHT22;6702;47.068;15.458;2022-07-29T14:17:26;32.10;52.20
13268;DHT22;6702;47.068;15.458;2022-07-29T14:20:29;32.40;51.90
13268;DHT22;6702;47.068;15.458;2022-07-29T14:23:32;32.50;51.30
13268;DHT22;6702;47.068;15.458;2022-07-29T14:26:35;32.80;51.60
13268;DHT22;6702;47.068;15.458;2022-07-29T14:29:40;32.80;48.80
13268;DHT22;6702;47.068;15.458;2022-07-29T14:32:43;32.60;47.80
13268;DHT22;6702;47.068;15.458;2022-07-29T14:35:46;32.50;48.70
13268;DHT22;6702;47.068;15.458;2022-07-29T14:38:50;32.40;48.90
13268;DHT22;6702;47.068;15.458;2022-07-29T14:41:53;32.50;50.10
13268;DHT22;6702;47.068;15.458;2022-07-29T14:44:58;32.60;50.20
13268;DHT22;6702;47.068;15.458;2022-07-29T14:48:01;32.70;49.90
13268;DHT22;6702;47.068;15.458;2022-07-29T14:51:04;32.70;50.00
13268;DHT22;6702;47.068;15.458;2022-07-29T14:54:08;32.80;50.60
13268;DHT22;6702;47.068;15.458;2022-07-29T14:57:12;32.80;51.00
13268;DHT22;6702;47.068;15.458;2022-07-29T15:00:17;32.80;50.90
13268;DHT22;6702;47.068;15.458;2022-07-29T15:03:20;32.80;50.40
13268;DHT22;6702;47.068;15.458;2022-07-29T15:06:25;32.80;50.50
13268;DHT22;6702;47.068;15.458;2022-07-29T15:09:28;32.60;51.40
13268;DHT22;6702;47.068;15.458;2022-07-29T15:12:31;32.60;50.90
13268;DHT22;6702;47.068;15.458;2022-07-29T15:15:36;32.50;51.00
13268;DHT22;6702;47.068;15.458;2022-07-29T15:18:39;32.40;49.80
13268;DHT22;6702;47.068;15.458;2022-07-29T15:21:43;32.40;50.20
13268;DHT22;6702;47.068;15.458;2022-07-29T15:25:00;32.40;50.00
13268;DHT22;6702;47.068;15.458;2022-07-29T15:28:03;32.20;50.50
13268;DHT22;6702;47.068;15.458;2022-07-29T15:31:10;32.00;51.30
13268;DHT22;6702;47.068;15.458;2022-07-29T15:34:13;31.80;51.40
13268;DHT22;6702;47.068;15.458;2022-07-29T15:37:16;31.60;52.00
13268;DHT22;6702;47.068;15.458;2022-07-29T15:40:19;31.50;51.70
13268;DHT22;6702;47.068;15.458;2022-07-29T15:43:23;31.30;52.10
13268;DHT22;6702;47.068;15.458;2022-07-29T15:46:28;31.40;52.30
13268;DHT22;6702;47.068;15.458;2022-07-29T15:49:49;31.50;52.30
13268;DHT22;6702;47.068;15.458;2022-07-29T15:52:52;31.50;52.20
13268;DHT22;6702;47.068;15.458;2022-07-29T15:55:55;31.50;51.60
13268;DHT22;6702;47.068;15.458;2022-07-29T15:58:58;31.50;51.90
13268;DHT22;6702;47.068;15.458;2022-07-29T16:02:03;31.50;52.10
13268;DHT22;6702;47.068;15.458;2022-07-29T16:05:07;31.40;52.20
13268;DHT22;6702;47.068;15.458;2022-07-29T16:08:10;31.40;52.40
13268;DHT22;6702;47.068;15.458;2022-07-29T16:11:13;31.30;52.40
13268;DHT22;6702;47.068;15.458;2022-07-29T16:14:17;31.20;52.30
13268;DHT22;6702;47.068;15.458;2022-07-29T16:17:21;31.20;53.10
13268;DHT22;6702;47.068;15.458;2022-07-29T16:20:25;31.10;52.80
13268;DHT22;6702;47.068;15.458;2022-07-29T16:23:28;31.00;53.20
13268;DHT22;6702;47.068;15.458;2022-07-29T16:26:31;30.90;53.10
13268;DHT22;6702;47.068;15.458;2022-07-29T16:29:35;30.90;53.10
13268;DHT22;6702;47.068;15.458;2022-07-29T16:32:40;30.80;53.50
13268;DHT22;6702;47.068;15.458;2022-07-29T16:35:43;30.70;53.40
13268;DHT22;6702;47.068;15.458;2022-07-29T16:38:46;30.60;53.60
13268;DHT22;6702;47.068;15.458;2022-07-29T16:41:50;30.60;53.70
13268;DHT22;6702;47.068;15.458;2022-07-29T16:44:56;30.50;53.90
13268;DHT22;6702;47.068;15.458;2022-07-29T16:48:01;30.40;54.40
13268;DHT22;6702;47.068;15.458;2022-07-29T16:51:07;30.40;54.70
13268;DHT22;6702;47.068;15.458;2022-07-29T16:54:15;30.40;54.30
13268;DHT22;6702;47.068;15.458;2022-07-29T16:57:18;30.30;54.60
13268;DHT22;6702;47.068;15.458;2022-07-29T17:00:21;30.30;54.10
13268;DHT22;6702;47.068;15.458;2022-07-29T17:03:26;30.20;54.10
13268;DHT22;6702;47.068;15.458;2022-07-29T17:06:29;30.10;54.60
13268;DHT22;6702;47.068;15.458;2022-07-29T17:09:33;29.90;55.10
13268;DHT22;6702;47.068;15.458;2022-07-29T17:12:37;29.80;55.80
13268;DHT22;6702;47.068;15.458;2022-07-29T17:15:41;29.70;56.00
13268;DHT22;6702;47.068;15.458;2022-07-29T17:18:46;29.60;56.40
13268;DHT22;6702;47.068;15.458;2022-07-29T17:21:49;29.40;56.50
13268;DHT22;6702;47.068;15.458;2022-07-29T17:24:53;29.30;57.10
13268;DHT22;6702;47.068;15.458;2022-07-29T17:27:56;29.20;57.20
13268;DHT22;6702;47.068;15.458;2022-07-29T17:31:02;29.10;57.40
13268;DHT22;6702;47.068;15.458;2022-07-29T17:34:06;29.00;57.50
13268;DHT22;6702;47.068;15.458;2022-07-29T17:37:10;29.00;57.90
13268;DHT22;6702;47.068;15.458;2022-07-29T17:40:14;29.00;58.20
13268;DHT22;6702;47.068;15.458;2022-07-29T17:43:17;28.90;59.00
13268;DHT22;6702;47.068;15.458;2022-07-29T17:46:21;28.80;58.30
13268;DHT22;6702;47.068;15.458;2022-07-29T17:49:27;28.80;58.70
13268;DHT22;6702;47.068;15.458;2022-07-29T17:52:30;28.70;59.00
13268;DHT22;6702;47.068;15.458;2022-07-29T17:55:33;28.70;59.50
13268;DHT22;6702;47.068;15.458;2022-07-29T17:58:37;28.60;60.10
13268;DHT22;6702;47.068;15.458;2022-07-29T18:01:40;28.60;60.30
13268;DHT22;6702;47.068;15.458;2022-07-29T18:04:45;28.50;60.70
13268;DHT22;6702;47.068;15.458;2022-07-29T18:07:51;28.40;62.10
13268;DHT22;6702;47.068;15.458;2022-07-29T18:10:56;28.30;62.90
13268;DHT22;6702;47.068;15.458;2022-07-29T18:13:59;28.30;64.40
13268;DHT22;6702;47.068;15.458;2022-07-29T18:17:03;28.20;65.70
13268;DHT22;6702;47.068;15.458;2022-07-29T18:20:09;28.10;65.90
13268;DHT22;6702;47.068;15.458;2022-07-29T18:23:12;28.00;66.70
13268;DHT22;6702;47.068;15.458;2022-07-29T18:26:16;27.90;67.30
13268;DHT22;6702;47.068;15.458;2022-07-29T18:29:19;27.80;67.60
13268;DHT22;6702;47.068;15.458;2022-07-29T18:32:22;27.80;68.20
13268;DHT22;6702;47.068;15.458;2022-07-29T18:35:31;27.70;68.90
13268;DHT22;6702;47.068;15.458;2022-07-29T18:38:34;27.60;69.30
13268;DHT22;6702;47.068;15.458;2022-07-29T18:41:38;27.60;70.10
13268;DHT22;6702;47.068;15.458;2022-07-29T18:44:51;27.50;70.80
13268;DHT22;6702;47.068;15.458;2022-07-29T18:47:55;27.40;71.30
13268;DHT22;6702;47.068;15.458;2022-07-29T18:51:00;27.40;72.00
13268;DHT22;6702;47.068;15.458;2022-07-29T18:54:10;27.30;72.30
13268;DHT22;6702;47.068;15.458;2022-07-29T18:57:13;27.30;73.00
13268;DHT22;6702;47.068;15.458;2022-07-29T19:00:36;27.20;73.40
13268;DHT22;6702;47.068;15.458;2022-07-29T19:03:39;27.20;74.30
13268;DHT22;6702;47.068;15.458;2022-07-29T19:06:44;27.20;75.00
13268;DHT22;6702;47.068;15.458;2022-07-29T19:09:47;27.10;75.30
13268;DHT22;6702;47.068;15.458;2022-07-29T19:12:50;27.00;75.80
13268;DHT22;6702;47.068;15.458;2022-07-29T19:15:53;26.90;76.60
13268;DHT22;6702;47.068;15.458;2022-07-29T19:18:57;26.90;76.90
13268;DHT22;6702;47.068;15.458;2022-07-29T19:22:03;26.80;77.20
13268;DHT22;6702;47.068;15.458;2022-07-29T19:25:07;26.80;77.70
13268;DHT22;6702;47.068;15.458;2022-07-29T19:28:10;26.80;78.40
13268;DHT22;6702;47.068;15.458;2022-07-29T19:31:13;26.70;78.90
13268;DHT22;6702;47.068;15.458;2022-07-29T19:34:17;26.70;79.60